Terminal Aerodrome Forecast
Issued by NWS

Home | Current Version | Previous Version | Text Only | Print | Product List | Glossary On
Versions: 1 2 3 4 5 6 7 8 9 10 11 12 13 14 15 16 17 18 19 20 21 22 23 24 25 26 27 28 29
000
FTUS44 KFWD 310856 AAA
TAFDAL
TAF AMD
KDAL 310856Z 3109/0106 16008KT P6SM BKN060 BKN250
     FM312000 16011KT P6SM VCTS BKN040CB
     FM010200 15010KT P6SM BKN100 OVC250=

USA.gov is the U.S. government's official web portal to all federal, state and local government web resources and services.